This is the latest recevied weather packets stored in our database for station/object F4FEB-14. If no packets are shown the sender has not sent any weather packets the latest 10 day(s).
| Time | Temp. | Humidity | Pressure | Rain* | Wind** | Luminosity | Snow |
|---|---|---|---|---|---|---|---|
| 1777633239 | 24.44° C | 73% | 1024.8 hPa | 0 mm | - | - | - |
| 1777632938 | 24.44° C | 73% | 1024.9 hPa | 0 mm | - | - | - |
| 1777632637 | 23.89° C | 78% | 1024.9 hPa | 0 mm | - | - | - |
| 1777632336 | 24.44° C | 74% | 1025 hPa | 0 mm | - | - | - |
| 1777632036 | 24.44° C | 72% | 1025 hPa | 0 mm | - | - | - |
| 1777631733 | 24.44° C | 79% | 1025 hPa | 0 mm | - | - | - |
| 1777631433 | 23.89° C | 77% | 1025 hPa | 0 mm | - | - | - |
| 1777631131 | 23.89° C | 79% | 1025 hPa | 0 mm | - | - | - |
| 1777630830 | 23.89° C | 75% | 1025 hPa | 0 mm | - | - | - |
| 1777630529 | 23.89° C | 73% | 1025 hPa | 0 mm | - | - | - |
| 1777630228 | 23.33° C | 78% | 1024.9 hPa | 0 mm | - | - | - |
| 1777629927 | 23.33° C | 79% | 1025 hPa | 0 mm | - | - | - |
| 1777629324 | 23.89° C | 76% | 1025.1 hPa | 0 mm | - | - | - |
| 1777629023 | 23.33° C | 80% | 1025.1 hPa | 0 mm | - | - | - |
| 1777628722 | 22.78° C | 82% | 1025.1 hPa | 0 mm | - | - | - |
| 1777628420 | 22.78° C | 83% | 1025 hPa | 0 mm | - | - | - |
| 1777628120 | 22.22° C | 81% | 1025 hPa | 0 mm | - | - | - |
| 1777627817 | 22.22° C | 78% | 1025 hPa | 0 mm | - | - | - |
| 1777627516 | 22.78° C | 75% | 1025.1 hPa | 0 mm | - | - | - |
| 1777627215 | 22.78° C | 79% | 1025 hPa | 0 mm | - | - | - |
| 1777626914 | 22.78° C | 76% | 1025 hPa | 0 mm | - | - | - |
| 1777626312 | 22.22° C | 79% | 1024.9 hPa | 0 mm | - | - | - |
| 1777626011 | 22.22° C | 75% | 1024.9 hPa | 0 mm | - | - | - |
| 1777625709 | 21.67° C | 79% | 1024.9 hPa | 0 mm | - | - | - |
| 1777625408 | 21.67° C | 79% | 1024.9 hPa | 0 mm | - | - | - |
* Rain latest hour (hover to see other rain measurements)
** Current wind speed in m/s (hover to see current wind gust speed)